Página principal
METAR-TAF:

METAR-TAF

Aeroportos :

Aeroporto Internacional de Maputo

Maputo, Moçambique

latitude: 25-55S, longitude: 032-34E, altura: 39 m

Observação actual do tempo

O boletim foi feito há 1 hora e 22 minutos, às 21:00 UTC
Vento 8 kt de es-sudeste
Temperatura 25°C
Humidade 79%
Pressão 1020 hPa
Visibilidade 10 km ou mais
Poucas nuvensa uma altura de 2500 ft

METAR: FQMA 142100Z 12008KT 9999 FEW025 25/21 Q1020 NOSIG

Hora: 00:22 (22:22 UTC)

Previsão

O boletim foi feito há 6 horas e 22 minutos, às 16:00 UTC
Previsão válida de 14 às 18 UTC a 15 às 24 UTC
Vento 10 kt de este
Visibilidade 10 km ou mais
Nuvens dispersasa uma altura de 2000 ft
Tornando-se
de 15 às 00 UTC a 15 às 02 UTC
Vento 8 kt de nor-nordeste
Tornando-se
de 15 às 12 UTC a 15 às 14 UTC
Vento 12 kt de este
Tornando-se
de 15 às 18 UTC a 15 às 20 UTC
Vento 10 kt de norte

TAF: FQMA 141600Z 1418/1524 09010KT 9999 SCT020 BECMG 1500/1502 02008KT BECMG 1512/1514 08012KT BECMG 1518/1520 01010KT TX36/1513Z TN24/1503Z

Observações e previsões do tempo de mais de 4000 aeroportos (mensagens METAR e TAF).

As estações disponíveis são os pontos amarelos e vermelhos sobre o mapa.

Mova o rato sobre o mapa para ver o nome da estação.

Depois clique no ponto para visualizar as observações e previsões meteorológicas.

Para alterar o mapa : clique nos botões verdes com uma cruz preta para aumentar o zoom; no botão verde com uma pitada de zoom; ou nas setas verdes para mapas adjacentes.


METAR-TAF: